sensor_id;sensor_type;location;lat;lon;timestamp;temperature;humidity
16491;DHT22;8356;51.214;3.270;2022-07-23T00:01:23;461.70;2380.80
16491;DHT22;8356;51.214;3.270;2022-07-23T00:03:49;486.40;2380.80
16491;DHT22;8356;51.214;3.270;2022-07-23T00:06:15;461.50;2380.80
16491;DHT22;8356;51.214;3.270;2022-07-23T00:08:41;486.40;2380.80
16491;DHT22;8356;51.214;3.270;2022-07-23T00:11:07;486.40;2380.80
16491;DHT22;8356;51.214;3.270;2022-07-23T00:13:33;486.50;2380.80
16491;DHT22;8356;51.214;3.270;2022-07-23T00:15:58;486.50;2380.80
16491;DHT22;8356;51.214;3.270;2022-07-23T00:18:24;486.60;2380.80
16491;DHT22;8356;51.214;3.270;2022-07-23T00:20:51;486.60;2380.80
16491;DHT22;8356;51.214;3.270;2022-07-23T00:23:17;486.40;2380.80
16491;DHT22;8356;51.214;3.270;2022-07-23T00:25:42;461.70;2380.80
16491;DHT22;8356;51.214;3.270;2022-07-23T00:28:08;461.70;2380.80
16491;DHT22;8356;51.214;3.270;2022-07-23T00:30:34;461.50;2380.80
16491;DHT22;8356;51.214;3.270;2022-07-23T00:33:02;461.30;2380.80
16491;DHT22;8356;51.214;3.270;2022-07-23T00:35:31;461.00;2380.80
16491;DHT22;8356;51.214;3.270;2022-07-23T00:37:58;461.10;2380.80
16491;DHT22;8356;51.214;3.270;2022-07-23T00:40:24;461.10;2380.80
16491;DHT22;8356;51.214;3.270;2022-07-23T00:42:50;461.10;2380.80
16491;DHT22;8356;51.214;3.270;2022-07-23T00:45:16;436.00;2355.20
16491;DHT22;8356;51.214;3.270;2022-07-23T00:47:42;461.00;2380.80
16491;DHT22;8356;51.214;3.270;2022-07-23T00:50:09;461.00;2380.80
16491;DHT22;8356;51.214;3.270;2022-07-23T00:52:36;436.10;2355.20
16491;DHT22;8356;51.214;3.270;2022-07-23T00:55:03;461.00;2380.80
16491;DHT22;8356;51.214;3.270;2022-07-23T00:57:29;461.30;2380.80
16491;DHT22;8356;51.214;3.270;2022-07-23T00:59:55;461.40;2380.80
16491;DHT22;8356;51.214;3.270;2022-07-23T01:02:21;461.40;2380.80
16491;DHT22;8356;51.214;3.270;2022-07-23T01:04:47;461.40;2380.80
16491;DHT22;8356;51.214;3.270;2022-07-23T01:07:13;461.40;2380.80
16491;DHT22;8356;51.214;3.270;2022-07-23T01:09:38;461.40;2380.80
16491;DHT22;8356;51.214;3.270;2022-07-23T01:12:04;461.30;2380.80
16491;DHT22;8356;51.214;3.270;2022-07-23T01:14:30;461.20;2380.80
16491;DHT22;8356;51.214;3.270;2022-07-23T01:16:56;461.20;2380.80
16491;DHT22;8356;51.214;3.270;2022-07-23T01:19:22;461.10;2380.80
16491;DHT22;8356;51.214;3.270;2022-07-23T01:21:49;461.00;2380.80
16491;DHT22;8356;51.214;3.270;2022-07-23T01:24:16;461.10;2380.80
16491;DHT22;8356;51.214;3.270;2022-07-23T01:26:44;461.00;2380.80
16491;DHT22;8356;51.214;3.270;2022-07-23T01:29:10;460.80;2380.80
16491;DHT22;8356;51.214;3.270;2022-07-23T01:31:36;436.00;2355.20
16491;DHT22;8356;51.214;3.270;2022-07-23T01:34:02;435.90;2355.20
16491;DHT22;8356;51.214;3.270;2022-07-23T01:36:28;435.90;2355.20
16491;DHT22;8356;51.214;3.270;2022-07-23T01:38:53;436.10;2355.20
16491;DHT22;8356;51.214;3.270;2022-07-23T01:41:19;436.10;2355.20
16491;DHT22;8356;51.214;3.270;2022-07-23T01:43:45;435.90;2355.20
16491;DHT22;8356;51.214;3.270;2022-07-23T01:46:11;436.10;2355.20
16491;DHT22;8356;51.214;3.270;2022-07-23T01:48:37;436.10;2355.20
16491;DHT22;8356;51.214;3.270;2022-07-23T01:51:03;436.10;2355.20
16491;DHT22;8356;51.214;3.270;2022-07-23T01:53:29;436.10;2355.20
16491;DHT22;8356;51.214;3.270;2022-07-23T01:55:59;436.10;2355.20
16491;DHT22;8356;51.214;3.270;2022-07-23T01:58:26;436.10;2355.20
16491;DHT22;8356;51.214;3.270;2022-07-23T02:00:53;460.80;2380.80
16491;DHT22;8356;51.214;3.270;2022-07-23T02:03:19;460.80;2380.80
16491;DHT22;8356;51.214;3.270;2022-07-23T02:05:44;460.90;2380.80
16491;DHT22;8356;51.214;3.270;2022-07-23T02:08:10;460.90;2380.80
16491;DHT22;8356;51.214;3.270;2022-07-23T02:10:35;460.90;2380.80
16491;DHT22;8356;51.214;3.270;2022-07-23T02:13:01;436.10;2355.20
16491;DHT22;8356;51.214;3.270;2022-07-23T02:15:27;435.90;2355.20
16491;DHT22;8356;51.214;3.270;2022-07-23T02:17:54;435.90;2355.20
16491;DHT22;8356;51.214;3.270;2022-07-23T02:20:20;435.80;2355.20
16491;DHT22;8356;51.214;3.270;2022-07-23T02:22:45;435.90;2355.20
16491;DHT22;8356;51.214;3.270;2022-07-23T02:25:11;435.90;2355.20
16491;DHT22;8356;51.214;3.270;2022-07-23T02:27:37;435.90;2355.20
16491;DHT22;8356;51.214;3.270;2022-07-23T02:30:03;435.80;2355.20
16491;DHT22;8356;51.214;3.270;2022-07-23T02:32:29;435.70;2355.20
16491;DHT22;8356;51.214;3.270;2022-07-23T02:34:55;435.60;2355.20
16491;DHT22;8356;51.214;3.270;2022-07-23T02:37:21;435.60;2355.20
16491;DHT22;8356;51.214;3.270;2022-07-23T02:39:47;435.70;2355.20
16491;DHT22;8356;51.214;3.270;2022-07-23T02:42:14;436.00;2355.20
16491;DHT22;8356;51.214;3.270;2022-07-23T02:44:39;435.70;2355.20
16491;DHT22;8356;51.214;3.270;2022-07-23T02:47:05;435.60;2355.20
16491;DHT22;8356;51.214;3.270;2022-07-23T02:49:31;435.50;2355.20
16491;DHT22;8356;51.214;3.270;2022-07-23T02:51:56;435.60;2355.20
16491;DHT22;8356;51.214;3.270;2022-07-23T02:54:22;435.60;2355.20
16491;DHT22;8356;51.214;3.270;2022-07-23T02:56:48;435.60;2355.20
16491;DHT22;8356;51.214;3.270;2022-07-23T02:59:16;435.50;2355.20
16491;DHT22;8356;51.214;3.270;2022-07-23T03:01:41;435.50;2355.20
16491;DHT22;8356;51.214;3.270;2022-07-23T03:04:07;435.60;2355.20
16491;DHT22;8356;51.214;3.270;2022-07-23T03:06:32;435.60;2355.20
16491;DHT22;8356;51.214;3.270;2022-07-23T03:08:58;435.60;2355.20
16491;DHT22;8356;51.214;3.270;2022-07-23T03:11:24;435.60;2355.20
16491;DHT22;8356;51.214;3.270;2022-07-23T03:13:50;435.50;2355.20
16491;DHT22;8356;51.214;3.270;2022-07-23T03:16:15;435.60;2355.20
16491;DHT22;8356;51.214;3.270;2022-07-23T03:18:41;435.70;2355.20
16491;DHT22;8356;51.214;3.270;2022-07-23T03:21:07;435.80;2355.20
16491;DHT22;8356;51.214;3.270;2022-07-23T03:23:32;435.90;2355.20
16491;DHT22;8356;51.214;3.270;2022-07-23T03:25:58;435.90;2355.20
16491;DHT22;8356;51.214;3.270;2022-07-23T03:28:24;436.10;2355.20
16491;DHT22;8356;51.214;3.270;2022-07-23T03:30:49;460.80;2380.80
16491;DHT22;8356;51.214;3.270;2022-07-23T03:33:16;460.90;2380.80
16491;DHT22;8356;51.214;3.270;2022-07-23T03:35:45;436.10;2355.20
16491;DHT22;8356;51.214;3.270;2022-07-23T03:38:11;461.00;2380.80
16491;DHT22;8356;51.214;3.270;2022-07-23T03:40:37;460.90;2380.80
16491;DHT22;8356;51.214;3.270;2022-07-23T03:43:03;460.90;2380.80
16491;DHT22;8356;51.214;3.270;2022-07-23T03:45:30;460.80;2380.80
16491;DHT22;8356;51.214;3.270;2022-07-23T03:47:55;460.80;2380.80
16491;DHT22;8356;51.214;3.270;2022-07-23T03:50:21;460.80;2380.80
16491;DHT22;8356;51.214;3.270;2022-07-23T03:52:47;436.10;2355.20
16491;DHT22;8356;51.214;3.270;2022-07-23T03:55:13;436.00;2355.20
16491;DHT22;8356;51.214;3.270;2022-07-23T03:57:39;436.10;2355.20
16491;DHT22;8356;51.214;3.270;2022-07-23T04:00:05;436.10;2355.20
16491;DHT22;8356;51.214;3.270;2022-07-23T04:02:32;436.10;2355.20
16491;DHT22;8356;51.214;3.270;2022-07-23T04:04:58;436.10;2355.20
16491;DHT22;8356;51.214;3.270;2022-07-23T04:07:24;436.10;2355.20
16491;DHT22;8356;51.214;3.270;2022-07-23T04:09:50;436.10;2355.20
16491;DHT22;8356;51.214;3.270;2022-07-23T04:12:16;436.10;2355.20
16491;DHT22;8356;51.214;3.270;2022-07-23T04:14:42;436.10;2355.20
16491;DHT22;8356;51.214;3.270;2022-07-23T04:17:07;436.10;2355.20
16491;DHT22;8356;51.214;3.270;2022-07-23T04:19:33;436.10;2355.20
16491;DHT22;8356;51.214;3.270;2022-07-23T04:22:00;436.10;2355.20
16491;DHT22;8356;51.214;3.270;2022-07-23T04:24:26;436.10;2355.20
16491;DHT22;8356;51.214;3.270;2022-07-23T04:26:52;460.80;2380.80
16491;DHT22;8356;51.214;3.270;2022-07-23T04:29:18;460.90;2380.80
16491;DHT22;8356;51.214;3.270;2022-07-23T04:31:44;460.80;2380.80
16491;DHT22;8356;51.214;3.270;2022-07-23T04:34:09;460.80;2380.80
16491;DHT22;8356;51.214;3.270;2022-07-23T04:36:35;460.80;2380.80
16491;DHT22;8356;51.214;3.270;2022-07-23T04:39:00;460.80;2380.80
16491;DHT22;8356;51.214;3.270;2022-07-23T04:41:26;460.90;2380.80
16491;DHT22;8356;51.214;3.270;2022-07-23T04:43:51;460.80;2380.80
16491;DHT22;8356;51.214;3.270;2022-07-23T04:46:18;436.10;2355.20
16491;DHT22;8356;51.214;3.270;2022-07-23T04:48:43;435.90;2355.20
16491;DHT22;8356;51.214;3.270;2022-07-23T04:51:09;435.90;2355.20
16491;DHT22;8356;51.214;3.270;2022-07-23T04:53:37;435.80;2355.20
16491;DHT22;8356;51.214;3.270;2022-07-23T04:56:02;435.80;2355.20
16491;DHT22;8356;51.214;3.270;2022-07-23T04:58:28;435.90;2355.20
16491;DHT22;8356;51.214;3.270;2022-07-23T05:00:54;436.00;2355.20
16491;DHT22;8356;51.214;3.270;2022-07-23T05:03:20;436.00;2355.20
16491;DHT22;8356;51.214;3.270;2022-07-23T05:05:46;436.10;2355.20
16491;DHT22;8356;51.214;3.270;2022-07-23T05:08:12;436.10;2355.20
16491;DHT22;8356;51.214;3.270;2022-07-23T05:10:37;436.10;2355.20
16491;DHT22;8356;51.214;3.270;2022-07-23T05:13:03;460.80;2380.80
16491;DHT22;8356;51.214;3.270;2022-07-23T05:15:28;461.00;2380.80
16491;DHT22;8356;51.214;3.270;2022-07-23T05:17:54;461.00;2380.80
16491;DHT22;8356;51.214;3.270;2022-07-23T05:20:20;461.00;2380.80
16491;DHT22;8356;51.214;3.270;2022-07-23T05:22:45;461.00;2380.80
16491;DHT22;8356;51.214;3.270;2022-07-23T05:25:11;461.00;2380.80
16491;DHT22;8356;51.214;3.270;2022-07-23T05:27:36;461.00;2380.80
16491;DHT22;8356;51.214;3.270;2022-07-23T05:30:03;460.90;2380.80
16491;DHT22;8356;51.214;3.270;2022-07-23T05:32:28;460.90;2380.80
16491;DHT22;8356;51.214;3.270;2022-07-23T05:34:57;461.00;2380.80
16491;DHT22;8356;51.214;3.270;2022-07-23T05:37:22;460.90;2380.80
16491;DHT22;8356;51.214;3.270;2022-07-23T05:39:48;460.90;2380.80
16491;DHT22;8356;51.214;3.270;2022-07-23T05:42:14;461.00;2380.80
16491;DHT22;8356;51.214;3.270;2022-07-23T05:44:39;461.00;2380.80
16491;DHT22;8356;51.214;3.270;2022-07-23T05:47:05;461.10;2380.80
16491;DHT22;8356;51.214;3.270;2022-07-23T05:49:30;461.20;2380.80
16491;DHT22;8356;51.214;3.270;2022-07-23T05:51:56;461.40;2380.80
16491;DHT22;8356;51.214;3.270;2022-07-23T05:54:22;461.50;2380.80
16491;DHT22;8356;51.214;3.270;2022-07-23T05:56:47;461.60;2380.80
16491;DHT22;8356;51.214;3.270;2022-07-23T05:59:13;461.70;2380.80
16491;DHT22;8356;51.214;3.270;2022-07-23T06:01:40;486.40;2380.80
16491;DHT22;8356;51.214;3.270;2022-07-23T06:04:05;486.40;2380.80
16491;DHT22;8356;51.214;3.270;2022-07-23T06:06:31;486.50;2380.80
16491;DHT22;8356;51.214;3.270;2022-07-23T06:08:57;486.50;2380.80
16491;DHT22;8356;51.214;3.270;2022-07-23T06:11:22;486.50;2380.80
16491;DHT22;8356;51.214;3.270;2022-07-23T06:13:48;486.40;2380.80
16491;DHT22;8356;51.214;3.270;2022-07-23T06:16:14;486.50;2380.80
16491;DHT22;8356;51.214;3.270;2022-07-23T06:18:39;486.50;2380.80
16491;DHT22;8356;51.214;3.270;2022-07-23T06:21:05;486.60;2380.80
16491;DHT22;8356;51.214;3.270;2022-07-23T06:23:31;486.60;2380.80
16491;DHT22;8356;51.214;3.270;2022-07-23T06:25:56;486.70;2380.80
16491;DHT22;8356;51.214;3.270;2022-07-23T06:28:22;486.70;2380.80
16491;DHT22;8356;51.214;3.270;2022-07-23T06:30:47;486.70;2380.80
16491;DHT22;8356;51.214;3.270;2022-07-23T06:33:13;486.80;2380.80
16491;DHT22;8356;51.214;3.270;2022-07-23T06:35:39;486.90;2380.80
16491;DHT22;8356;51.214;3.270;2022-07-23T06:38:04;487.00;2380.80
16491;DHT22;8356;51.214;3.270;2022-07-23T06:40:30;487.00;2380.80
16491;DHT22;8356;51.214;3.270;2022-07-23T06:42:56;487.10;2380.80
16491;DHT22;8356;51.214;3.270;2022-07-23T06:45:21;487.10;2380.80
16491;DHT22;8356;51.214;3.270;2022-07-23T06:47:47;487.30;2380.80
16491;DHT22;8356;51.214;3.270;2022-07-23T06:50:13;512.00;2380.80
16491;DHT22;8356;51.214;3.270;2022-07-23T06:52:38;512.10;2380.80
16491;DHT22;8356;51.214;3.270;2022-07-23T06:55:04;512.30;2380.80
16491;DHT22;8356;51.214;3.270;2022-07-23T06:57:30;512.60;2380.80
16491;DHT22;8356;51.214;3.270;2022-07-23T06:59:56;512.70;2380.80
16491;DHT22;8356;51.214;3.270;2022-07-23T07:02:21;512.80;2380.80
16491;DHT22;8356;51.214;3.270;2022-07-23T07:04:47;512.90;2380.80
16491;DHT22;8356;51.214;3.270;2022-07-23T07:07:13;537.60;2406.40
16491;DHT22;8356;51.214;3.270;2022-07-23T07:09:38;537.60;2406.40
16491;DHT22;8356;51.214;3.270;2022-07-23T07:12:04;537.70;2406.40
16491;DHT22;8356;51.214;3.270;2022-07-23T07:14:30;537.80;2406.40
16491;DHT22;8356;51.214;3.270;2022-07-23T07:16:56;537.80;2406.40
16491;DHT22;8356;51.214;3.270;2022-07-23T07:19:21;538.10;2406.40
16491;DHT22;8356;51.214;3.270;2022-07-23T07:21:47;538.30;2406.40
16491;DHT22;8356;51.214;3.270;2022-07-23T07:24:13;538.30;2406.40
16491;DHT22;8356;51.214;3.270;2022-07-23T07:26:38;538.40;2406.40
16491;DHT22;8356;51.214;3.270;2022-07-23T07:29:05;538.50;2406.40
16491;DHT22;8356;51.214;3.270;2022-07-23T07:31:31;563.20;2432.00
16491;DHT22;8356;51.214;3.270;2022-07-23T07:33:57;563.40;2432.00
16491;DHT22;8356;51.214;3.270;2022-07-23T07:36:23;563.50;2432.00
16491;DHT22;8356;51.214;3.270;2022-07-23T07:38:49;563.60;2432.00
16491;DHT22;8356;51.214;3.270;2022-07-23T07:41:14;563.80;2432.00
16491;DHT22;8356;51.214;3.270;2022-07-23T07:43:41;563.80;2432.00
16491;DHT22;8356;51.214;3.270;2022-07-23T07:46:07;563.90;2432.00
16491;DHT22;8356;51.214;3.270;2022-07-23T07:48:36;564.00;2432.00
16491;DHT22;8356;51.214;3.270;2022-07-23T07:51:03;588.80;2432.00
16491;DHT22;8356;51.214;3.270;2022-07-23T07:53:29;588.90;2432.00
16491;DHT22;8356;51.214;3.270;2022-07-23T07:55:54;588.90;2432.00
16491;DHT22;8356;51.214;3.270;2022-07-23T07:58:20;588.90;2432.00
16491;DHT22;8356;51.214;3.270;2022-07-23T08:00:46;589.10;2432.00
16491;DHT22;8356;51.214;3.270;2022-07-23T08:03:11;589.20;2432.00
16491;DHT22;8356;51.214;3.270;2022-07-23T08:05:37;589.40;2432.00
16491;DHT22;8356;51.214;3.270;2022-07-23T08:08:03;589.50;2432.00
16491;DHT22;8356;51.214;3.270;2022-07-23T08:10:29;589.60;2432.00
16491;DHT22;8356;51.214;3.270;2022-07-23T08:12:57;589.70;2432.00
16491;DHT22;8356;51.214;3.270;2022-07-23T08:15:25;614.40;2432.00
16491;DHT22;8356;51.214;3.270;2022-07-23T08:17:51;614.60;2432.00
16491;DHT22;8356;51.214;3.270;2022-07-23T08:20:18;614.60;2432.00
16491;DHT22;8356;51.214;3.270;2022-07-23T08:23:06;614.60;2432.00
16491;DHT22;8356;51.214;3.270;2022-07-23T08:25:42;614.70;2432.00
16491;DHT22;8356;51.214;3.270;2022-07-23T08:28:10;614.80;2432.00
16491;DHT22;8356;51.214;3.270;2022-07-23T08:30:37;614.90;2432.00
16491;DHT22;8356;51.214;3.270;2022-07-23T08:33:05;615.10;2432.00
16491;DHT22;8356;51.214;3.270;2022-07-23T08:35:35;615.20;2432.00
16491;DHT22;8356;51.214;3.270;2022-07-23T08:38:03;615.30;2432.00
16491;DHT22;8356;51.214;3.270;2022-07-23T08:40:31;640.10;2432.00
16491;DHT22;8356;51.214;3.270;2022-07-23T08:42:58;640.20;2432.00
16491;DHT22;8356;51.214;3.270;2022-07-23T08:45:25;640.40;2432.00
16491;DHT22;8356;51.214;3.270;2022-07-23T08:47:56;640.60;2432.00
16491;DHT22;8356;51.214;3.270;2022-07-23T08:50:24;640.50;2432.00
16491;DHT22;8356;51.214;3.270;2022-07-23T08:52:51;640.50;2432.00
16491;DHT22;8356;51.214;3.270;2022-07-23T08:55:18;640.70;2432.00
16491;DHT22;8356;51.214;3.270;2022-07-23T08:57:45;665.60;2432.00
16491;DHT22;8356;51.214;3.270;2022-07-23T09:00:13;665.80;2432.00
16491;DHT22;8356;51.214;3.270;2022-07-23T09:02:40;665.80;2432.00
16491;DHT22;8356;51.214;3.270;2022-07-23T09:05:07;665.90;2432.00
16491;DHT22;8356;51.214;3.270;2022-07-23T09:07:33;666.00;2432.00
16491;DHT22;8356;51.214;3.270;2022-07-23T09:10:09;666.20;2432.00
16491;DHT22;8356;51.214;3.270;2022-07-23T09:12:36;666.40;2432.00
16491;DHT22;8356;51.214;3.270;2022-07-23T09:15:07;666.30;2432.00
16491;DHT22;8356;51.214;3.270;2022-07-23T09:17:42;666.50;2432.00
16491;DHT22;8356;51.214;3.270;2022-07-23T09:20:14;666.50;2432.00
16491;DHT22;8356;51.214;3.270;2022-07-23T09:22:44;666.50;2432.00
16491;DHT22;8356;51.214;3.270;2022-07-23T09:25:14;691.40;2432.00
16491;DHT22;8356;51.214;3.270;2022-07-23T09:27:50;691.40;2432.00
16491;DHT22;8356;51.214;3.270;2022-07-23T09:30:16;691.50;2432.00
16491;DHT22;8356;51.214;3.270;2022-07-23T09:32:43;691.40;2432.00
16491;DHT22;8356;51.214;3.270;2022-07-23T09:35:08;666.40;2432.00
16491;DHT22;8356;51.214;3.270;2022-07-23T09:37:34;691.20;2432.00
16491;DHT22;8356;51.214;3.270;2022-07-23T09:40:08;691.50;2432.00
16491;DHT22;8356;51.214;3.270;2022-07-23T09:42:37;691.60;2432.00
16491;DHT22;8356;51.214;3.270;2022-07-23T09:45:03;691.60;2432.00
16491;DHT22;8356;51.214;3.270;2022-07-23T09:47:31;691.70;2432.00
16491;DHT22;8356;51.214;3.270;2022-07-23T09:50:08;691.60;2432.00
16491;DHT22;8356;51.214;3.270;2022-07-23T09:52:36;691.30;2432.00
16491;DHT22;8356;51.214;3.270;2022-07-23T09:55:06;691.30;2432.00
16491;DHT22;8356;51.214;3.270;2022-07-23T09:57:32;691.20;2432.00
16491;DHT22;8356;51.214;3.270;2022-07-23T10:00:04;691.40;2432.00
16491;DHT22;8356;51.214;3.270;2022-07-23T10:02:32;691.60;2432.00
16491;DHT22;8356;51.214;3.270;2022-07-23T10:04:58;691.90;2432.00
16491;DHT22;8356;51.214;3.270;2022-07-23T10:07:26;716.80;2432.00
16491;DHT22;8356;51.214;3.270;2022-07-23T10:09:53;692.10;2432.00
16491;DHT22;8356;51.214;3.270;2022-07-23T10:12:19;692.00;2432.00
16491;DHT22;8356;51.214;3.270;2022-07-23T10:14:45;692.00;2432.00
16491;DHT22;8356;51.214;3.270;2022-07-23T10:17:11;716.80;2432.00
16491;DHT22;8356;51.214;3.270;2022-07-23T10:19:38;716.90;2432.00
16491;DHT22;8356;51.214;3.270;2022-07-23T10:22:07;717.10;2432.00
16491;DHT22;8356;51.214;3.270;2022-07-23T10:27:47;717.10;2432.00
16491;DHT22;8356;51.214;3.270;2022-07-23T10:30:26;716.90;2432.00
16491;DHT22;8356;51.214;3.270;2022-07-23T10:36:07;692.00;2432.00
16491;DHT22;8356;51.214;3.270;2022-07-23T10:38:42;716.90;2432.00
16491;DHT22;8356;51.214;3.270;2022-07-23T10:41:13;717.40;2432.00
16491;DHT22;8356;51.214;3.270;2022-07-23T10:43:38;717.70;2432.00
16491;DHT22;8356;51.214;3.270;2022-07-23T10:46:30;742.40;2432.00
16491;DHT22;8356;51.214;3.270;2022-07-23T10:49:25;742.40;2432.00
16491;DHT22;8356;51.214;3.270;2022-07-23T10:52:19;742.60;2432.00
16491;DHT22;8356;51.214;3.270;2022-07-23T10:54:55;742.60;2432.00
16491;DHT22;8356;51.214;3.270;2022-07-23T10:57:25;742.70;2432.00
16491;DHT22;8356;51.214;3.270;2022-07-23T11:02:42;742.40;2432.00
16491;DHT22;8356;51.214;3.270;2022-07-23T11:05:10;742.40;2432.00
16491;DHT22;8356;51.214;3.270;2022-07-23T11:10:36;717.70;2432.00
16491;DHT22;8356;51.214;3.270;2022-07-23T11:24:14;717.40;2432.00
16491;DHT22;8356;51.214;3.270;2022-07-23T11:32:08;717.60;2432.00
16491;DHT22;8356;51.214;3.270;2022-07-23T11:34:44;742.60;2432.00
16491;DHT22;8356;51.214;3.270;2022-07-23T11:37:26;742.90;2432.00
16491;DHT22;8356;51.214;3.270;2022-07-23T11:39:55;742.80;2432.00
16491;DHT22;8356;51.214;3.270;2022-07-23T11:42:21;717.50;2432.00
16491;DHT22;8356;51.214;3.270;2022-07-23T11:44:47;717.20;2432.00
16491;DHT22;8356;51.214;3.270;2022-07-23T11:47:13;717.50;2432.00
16491;DHT22;8356;51.214;3.270;2022-07-23T11:49:41;742.60;2432.00
16491;DHT22;8356;51.214;3.270;2022-07-23T11:52:17;742.90;2432.00
16491;DHT22;8356;51.214;3.270;2022-07-23T11:54:54;768.00;2432.00
16491;DHT22;8356;51.214;3.270;2022-07-23T11:57:23;768.40;2432.00
16491;DHT22;8356;51.214;3.270;2022-07-23T11:59:53;768.40;2432.00
16491;DHT22;8356;51.214;3.270;2022-07-23T12:02:20;768.40;2432.00
16491;DHT22;8356;51.214;3.270;2022-07-23T12:04:49;768.70;2432.00
16491;DHT22;8356;51.214;3.270;2022-07-23T12:07:41;768.90;2432.00
16491;DHT22;8356;51.214;3.270;2022-07-23T12:10:12;768.70;2432.00
16491;DHT22;8356;51.214;3.270;2022-07-23T12:12:55;768.10;2432.00
16491;DHT22;8356;51.214;3.270;2022-07-23T12:15:23;768.00;2432.00
16491;DHT22;8356;51.214;3.270;2022-07-23T12:17:50;743.30;2432.00
16491;DHT22;8356;51.214;3.270;2022-07-23T12:20:21;743.10;2432.00
16491;DHT22;8356;51.214;3.270;2022-07-23T12:22:49;743.00;2432.00
16491;DHT22;8356;51.214;3.270;2022-07-23T12:25:17;743.30;2432.00
16491;DHT22;8356;51.214;3.270;2022-07-23T12:27:44;768.20;2432.00
16491;DHT22;8356;51.214;3.270;2022-07-23T12:30:20;768.20;2432.00
16491;DHT22;8356;51.214;3.270;2022-07-23T12:32:47;743.20;2432.00
16491;DHT22;8356;51.214;3.270;2022-07-23T12:35:14;742.90;2432.00
16491;DHT22;8356;51.214;3.270;2022-07-23T12:37:42;742.80;2432.00
16491;DHT22;8356;51.214;3.270;2022-07-23T12:40:21;742.50;2432.00
16491;DHT22;8356;51.214;3.270;2022-07-23T12:42:48;717.50;2432.00
16491;DHT22;8356;51.214;3.270;2022-07-23T12:45:14;717.20;2432.00
16491;DHT22;8356;51.214;3.270;2022-07-23T12:50:50;717.00;2432.00
16491;DHT22;8356;51.214;3.270;2022-07-23T12:53:21;717.50;2432.00
16491;DHT22;8356;51.214;3.270;2022-07-23T12:55:47;717.70;2432.00
16491;DHT22;8356;51.214;3.270;2022-07-23T12:58:18;742.50;2432.00
16491;DHT22;8356;51.214;3.270;2022-07-23T13:06:05;742.90;2432.00
16491;DHT22;8356;51.214;3.270;2022-07-23T13:08:32;743.10;2432.00
16491;DHT22;8356;51.214;3.270;2022-07-23T13:10:58;743.10;2432.00
16491;DHT22;8356;51.214;3.270;2022-07-23T13:13:27;742.90;2432.00
16491;DHT22;8356;51.214;3.270;2022-07-23T13:15:54;743.10;2432.00
16491;DHT22;8356;51.214;3.270;2022-07-23T13:18:21;742.70;2432.00
16491;DHT22;8356;51.214;3.270;2022-07-23T13:20:48;742.40;2432.00
16491;DHT22;8356;51.214;3.270;2022-07-23T14:55:20;717.50;2432.00
16491;DHT22;8356;51.214;3.270;2022-07-23T14:57:46;717.50;2432.00
16491;DHT22;8356;51.214;3.270;2022-07-23T15:00:12;717.60;2432.00
16491;DHT22;8356;51.214;3.270;2022-07-23T15:02:39;717.50;2432.00
16491;DHT22;8356;51.214;3.270;2022-07-23T15:05:05;717.40;2432.00
16491;DHT22;8356;51.214;3.270;2022-07-23T15:07:31;717.30;2432.00
16491;DHT22;8356;51.214;3.270;2022-07-23T15:09:57;717.30;2432.00
16491;DHT22;8356;51.214;3.270;2022-07-23T16:32:54;691.40;2432.00
16491;DHT22;8356;51.214;3.270;2022-07-23T16:35:20;691.20;2432.00
16491;DHT22;8356;51.214;3.270;2022-07-23T16:37:45;691.20;2432.00
16491;DHT22;8356;51.214;3.270;2022-07-23T16:40:12;666.50;2432.00
16491;DHT22;8356;51.214;3.270;2022-07-23T16:42:38;666.30;2432.00
16491;DHT22;8356;51.214;3.270;2022-07-23T16:45:04;666.10;2432.00
16491;DHT22;8356;51.214;3.270;2022-07-23T16:47:30;666.00;2432.00
16491;DHT22;8356;51.214;3.270;2022-07-23T16:49:56;666.00;2432.00
16491;DHT22;8356;51.214;3.270;2022-07-23T16:52:21;666.00;2432.00
16491;DHT22;8356;51.214;3.270;2022-07-23T16:54:47;666.10;2432.00
16491;DHT22;8356;51.214;3.270;2022-07-23T16:57:13;666.20;2432.00
16491;DHT22;8356;51.214;3.270;2022-07-23T16:59:39;666.00;2432.00
16491;DHT22;8356;51.214;3.270;2022-07-23T17:02:05;665.90;2432.00
16491;DHT22;8356;51.214;3.270;2022-07-23T17:04:31;665.90;2432.00
16491;DHT22;8356;51.214;3.270;2022-07-23T17:06:56;666.00;2432.00
16491;DHT22;8356;51.214;3.270;2022-07-23T17:09:28;665.80;2432.00
16491;DHT22;8356;51.214;3.270;2022-07-23T17:11:54;665.80;2432.00
16491;DHT22;8356;51.214;3.270;2022-07-23T17:14:20;665.80;2432.00
16491;DHT22;8356;51.214;3.270;2022-07-23T17:16:46;665.80;2432.00
16491;DHT22;8356;51.214;3.270;2022-07-23T17:19:11;665.60;2432.00
16491;DHT22;8356;51.214;3.270;2022-07-23T17:21:37;665.70;2432.00
16491;DHT22;8356;51.214;3.270;2022-07-23T17:24:03;665.80;2432.00
16491;DHT22;8356;51.214;3.270;2022-07-23T17:26:28;665.60;2432.00
16491;DHT22;8356;51.214;3.270;2022-07-23T17:28:54;640.90;2432.00
16491;DHT22;8356;51.214;3.270;2022-07-23T17:31:20;640.90;2432.00
16491;DHT22;8356;51.214;3.270;2022-07-23T17:33:45;640.90;2432.00
16491;DHT22;8356;51.214;3.270;2022-07-23T17:36:12;665.80;2432.00
16491;DHT22;8356;51.214;3.270;2022-07-23T17:38:38;666.00;2432.00
16491;DHT22;8356;51.214;3.270;2022-07-23T17:41:04;666.20;2432.00
16491;DHT22;8356;51.214;3.270;2022-07-23T17:43:30;666.00;2432.00
16491;DHT22;8356;51.214;3.270;2022-07-23T17:45:56;665.90;2432.00
16491;DHT22;8356;51.214;3.270;2022-07-23T17:48:22;665.80;2432.00
16491;DHT22;8356;51.214;3.270;2022-07-23T17:50:48;665.70;2432.00
16491;DHT22;8356;51.214;3.270;2022-07-23T17:53:14;665.80;2432.00
16491;DHT22;8356;51.214;3.270;2022-07-23T17:55:42;665.70;2432.00
16491;DHT22;8356;51.214;3.270;2022-07-23T17:58:08;665.60;2432.00
16491;DHT22;8356;51.214;3.270;2022-07-23T18:00:36;665.60;2432.00
16491;DHT22;8356;51.214;3.270;2022-07-23T18:03:01;665.60;2432.00
16491;DHT22;8356;51.214;3.270;2022-07-23T18:05:28;640.60;2432.00
16491;DHT22;8356;51.214;3.270;2022-07-23T18:07:53;665.80;2432.00
16491;DHT22;8356;51.214;3.270;2022-07-23T18:10:20;665.60;2432.00
16491;DHT22;8356;51.214;3.270;2022-07-23T18:12:45;640.80;2432.00
16491;DHT22;8356;51.214;3.270;2022-07-23T18:15:11;640.80;2432.00
16491;DHT22;8356;51.214;3.270;2022-07-23T18:17:38;640.70;2432.00
16491;DHT22;8356;51.214;3.270;2022-07-23T18:20:04;640.40;2432.00
16491;DHT22;8356;51.214;3.270;2022-07-23T18:22:30;640.30;2432.00
16491;DHT22;8356;51.214;3.270;2022-07-23T18:24:56;640.20;2432.00
16491;DHT22;8356;51.214;3.270;2022-07-23T18:27:22;640.00;2432.00
16491;DHT22;8356;51.214;3.270;2022-07-23T18:29:47;640.10;2432.00
16491;DHT22;8356;51.214;3.270;2022-07-23T18:32:13;640.10;2432.00